sensor_id;sensor_type;location;lat;lon;timestamp;P1;durP1;ratioP1;P2;durP2;ratioP2
10335;SDS011;5213;53.548;9.930;2023-10-09T00:00:56;2.65;;;2.45;;
10335;SDS011;5213;53.548;9.930;2023-10-09T00:03:39;4.45;;;3.00;;
10335;SDS011;5213;53.548;9.930;2023-10-09T00:06:06;3.65;;;2.60;;
10335;SDS011;5213;53.548;9.930;2023-10-09T00:08:32;3.58;;;2.90;;
10335;SDS011;5213;53.548;9.930;2023-10-09T00:11:00;5.22;;;2.58;;
10335;SDS011;5213;53.548;9.930;2023-10-09T00:13:43;4.10;;;2.60;;
10335;SDS011;5213;53.548;9.930;2023-10-09T00:16:22;3.63;;;2.65;;
10335;SDS011;5213;53.548;9.930;2023-10-09T00:19:01;3.40;;;2.70;;
10335;SDS011;5213;53.548;9.930;2023-10-09T00:21:48;4.43;;;2.70;;
10335;SDS011;5213;53.548;9.930;2023-10-09T00:24:15;4.38;;;2.65;;
10335;SDS011;5213;53.548;9.930;2023-10-09T00:26:50;4.13;;;2.67;;
10335;SDS011;5213;53.548;9.930;2023-10-09T00:29:39;2.60;;;2.40;;
10335;SDS011;5213;53.548;9.930;2023-10-09T00:32:15;3.58;;;2.13;;
10335;SDS011;5213;53.548;9.930;2023-10-09T00:35:02;4.82;;;2.53;;
10335;SDS011;5213;53.548;9.930;2023-10-09T00:37:48;3.47;;;2.30;;
10335;SDS011;5213;53.548;9.930;2023-10-09T00:40:16;3.53;;;2.50;;
10335;SDS011;5213;53.548;9.930;2023-10-09T00:42:45;3.15;;;2.35;;
10335;SDS011;5213;53.548;9.930;2023-10-09T00:45:12;4.10;;;2.40;;
10335;SDS011;5213;53.548;9.930;2023-10-09T00:47:49;5.57;;;2.50;;
10335;SDS011;5213;53.548;9.930;2023-10-09T00:50:16;3.50;;;2.55;;
10335;SDS011;5213;53.548;9.930;2023-10-09T00:52:45;4.68;;;3.15;;
10335;SDS011;5213;53.548;9.930;2023-10-09T00:55:26;8.13;;;2.92;;
10335;SDS011;5213;53.548;9.930;2023-10-09T00:58:01;3.67;;;2.80;;
10335;SDS011;5213;53.548;9.930;2023-10-09T01:00:33;6.93;;;3.10;;
10335;SDS011;5213;53.548;9.930;2023-10-09T01:03:17;5.90;;;3.15;;
10335;SDS011;5213;53.548;9.930;2023-10-09T01:08:21;3.58;;;3.00;;
10335;SDS011;5213;53.548;9.930;2023-10-09T01:10:58;3.72;;;2.90;;
10335;SDS011;5213;53.548;9.930;2023-10-09T01:13:43;5.43;;;2.92;;
10335;SDS011;5213;53.548;9.930;2023-10-09T01:16:13;6.03;;;3.00;;
10335;SDS011;5213;53.548;9.930;2023-10-09T01:18:45;9.05;;;3.67;;
10335;SDS011;5213;53.548;9.930;2023-10-09T01:21:21;7.85;;;2.80;;
10335;SDS011;5213;53.548;9.930;2023-10-09T01:23:49;5.15;;;3.42;;
10335;SDS011;5213;53.548;9.930;2023-10-09T01:29:04;5.28;;;3.05;;
10335;SDS011;5213;53.548;9.930;2023-10-09T01:31:35;3.92;;;2.97;;
10335;SDS011;5213;53.548;9.930;2023-10-09T01:34:03;3.70;;;2.42;;
10335;SDS011;5213;53.548;9.930;2023-10-09T01:36:35;7.68;;;2.90;;
10335;SDS011;5213;53.548;9.930;2023-10-09T01:39:04;4.00;;;2.17;;
10335;SDS011;5213;53.548;9.930;2023-10-09T01:41:48;3.10;;;2.30;;
10335;SDS011;5213;53.548;9.930;2023-10-09T01:44:26;3.50;;;2.33;;
10335;SDS011;5213;53.548;9.930;2023-10-09T01:47:00;2.45;;;2.20;;
10335;SDS011;5213;53.548;9.930;2023-10-09T01:49:32;3.97;;;2.33;;
10335;SDS011;5213;53.548;9.930;2023-10-09T01:52:00;4.10;;;2.08;;
10335;SDS011;5213;53.548;9.930;2023-10-09T01:54:38;6.18;;;2.30;;
10335;SDS011;5213;53.548;9.930;2023-10-09T01:57:11;2.92;;;1.80;;
10335;SDS011;5213;53.548;9.930;2023-10-09T01:59:41;3.17;;;2.03;;
10335;SDS011;5213;53.548;9.930;2023-10-09T02:02:09;5.15;;;2.47;;
10335;SDS011;5213;53.548;9.930;2023-10-09T02:04:56;2.45;;;1.80;;
10335;SDS011;5213;53.548;9.930;2023-10-09T02:07:49;3.15;;;2.00;;
10335;SDS011;5213;53.548;9.930;2023-10-09T02:10:19;2.85;;;2.10;;
10335;SDS011;5213;53.548;9.930;2023-10-09T02:12:56;2.83;;;2.00;;
10335;SDS011;5213;53.548;9.930;2023-10-09T02:15:31;2.78;;;1.90;;
10335;SDS011;5213;53.548;9.930;2023-10-09T02:18:17;3.25;;;2.20;;
10335;SDS011;5213;53.548;9.930;2023-10-09T02:20:48;3.60;;;2.35;;
10335;SDS011;5213;53.548;9.930;2023-10-09T02:23:40;3.17;;;2.10;;
10335;SDS011;5213;53.548;9.930;2023-10-09T02:26:09;5.35;;;2.65;;
10335;SDS011;5213;53.548;9.930;2023-10-09T02:28:48;2.47;;;2.28;;
10335;SDS011;5213;53.548;9.930;2023-10-09T02:31:34;3.83;;;2.40;;
10335;SDS011;5213;53.548;9.930;2023-10-09T02:34:08;3.65;;;2.63;;
10335;SDS011;5213;53.548;9.930;2023-10-09T02:36:36;3.38;;;2.35;;
10335;SDS011;5213;53.548;9.930;2023-10-09T02:39:08;5.75;;;2.50;;
10335;SDS011;5213;53.548;9.930;2023-10-09T02:41:52;3.88;;;2.40;;
10335;SDS011;5213;53.548;9.930;2023-10-09T02:44:25;2.40;;;2.20;;
10335;SDS011;5213;53.548;9.930;2023-10-09T02:46:51;3.30;;;2.40;;
10335;SDS011;5213;53.548;9.930;2023-10-09T02:49:22;3.80;;;2.30;;
10335;SDS011;5213;53.548;9.930;2023-10-09T02:51:49;5.35;;;2.25;;
10335;SDS011;5213;53.548;9.930;2023-10-09T02:54:18;2.55;;;2.33;;
10335;SDS011;5213;53.548;9.930;2023-10-09T02:56:47;3.10;;;2.80;;
10335;SDS011;5213;53.548;9.930;2023-10-09T02:59:39;4.85;;;2.60;;
10335;SDS011;5213;53.548;9.930;2023-10-09T03:02:10;4.10;;;2.70;;
10335;SDS011;5213;53.548;9.930;2023-10-09T03:04:36;4.05;;;2.55;;
10335;SDS011;5213;53.548;9.930;2023-10-09T03:07:04;4.78;;;2.63;;
10335;SDS011;5213;53.548;9.930;2023-10-09T03:09:30;3.15;;;2.63;;
10335;SDS011;5213;53.548;9.930;2023-10-09T03:12:00;2.72;;;2.50;;
10335;SDS011;5213;53.548;9.930;2023-10-09T03:14:28;4.85;;;2.47;;
10335;SDS011;5213;53.548;9.930;2023-10-09T03:16:55;2.85;;;2.53;;
10335;SDS011;5213;53.548;9.930;2023-10-09T03:19:22;3.55;;;2.30;;
10335;SDS011;5213;53.548;9.930;2023-10-09T03:21:50;3.70;;;2.33;;
10335;SDS011;5213;53.548;9.930;2023-10-09T03:24:15;2.70;;;2.42;;
10335;SDS011;5213;53.548;9.930;2023-10-09T03:26:41;3.72;;;2.20;;
10335;SDS011;5213;53.548;9.930;2023-10-09T03:29:10;3.53;;;2.53;;
10335;SDS011;5213;53.548;9.930;2023-10-09T03:31:37;3.83;;;2.33;;
10335;SDS011;5213;53.548;9.930;2023-10-09T03:34:03;4.28;;;2.38;;
10335;SDS011;5213;53.548;9.930;2023-10-09T03:36:29;4.03;;;2.42;;
10335;SDS011;5213;53.548;9.930;2023-10-09T03:39:03;3.95;;;2.33;;
10335;SDS011;5213;53.548;9.930;2023-10-09T03:41:43;6.13;;;2.75;;
10335;SDS011;5213;53.548;9.930;2023-10-09T03:44:12;4.40;;;2.40;;
10335;SDS011;5213;53.548;9.930;2023-10-09T03:46:43;3.72;;;2.70;;
10335;SDS011;5213;53.548;9.930;2023-10-09T03:49:09;4.53;;;2.50;;
10335;SDS011;5213;53.548;9.930;2023-10-09T03:51:37;2.65;;;2.15;;
10335;SDS011;5213;53.548;9.930;2023-10-09T03:54:02;4.43;;;2.30;;
10335;SDS011;5213;53.548;9.930;2023-10-09T03:56:34;3.22;;;2.30;;
10335;SDS011;5213;53.548;9.930;2023-10-09T03:59:00;2.40;;;2.20;;
10335;SDS011;5213;53.548;9.930;2023-10-09T04:01:30;4.80;;;2.50;;
10335;SDS011;5213;53.548;9.930;2023-10-09T04:04:03;3.95;;;2.10;;
10335;SDS011;5213;53.548;9.930;2023-10-09T04:06:31;3.22;;;2.42;;
10335;SDS011;5213;53.548;9.930;2023-10-09T04:09:01;3.30;;;2.30;;
10335;SDS011;5213;53.548;9.930;2023-10-09T04:11:44;3.72;;;2.35;;
10335;SDS011;5213;53.548;9.930;2023-10-09T04:14:22;4.45;;;2.53;;
10335;SDS011;5213;53.548;9.930;2023-10-09T04:16:51;3.97;;;2.47;;
10335;SDS011;5213;53.548;9.930;2023-10-09T04:19:18;4.40;;;2.20;;
10335;SDS011;5213;53.548;9.930;2023-10-09T04:21:49;4.28;;;2.35;;
10335;SDS011;5213;53.548;9.930;2023-10-09T04:24:15;3.88;;;2.40;;
10335;SDS011;5213;53.548;9.930;2023-10-09T04:26:41;3.22;;;2.47;;
10335;SDS011;5213;53.548;9.930;2023-10-09T04:29:15;4.25;;;2.30;;
10335;SDS011;5213;53.548;9.930;2023-10-09T04:31:54;2.20;;;2.00;;
10335;SDS011;5213;53.548;9.930;2023-10-09T04:34:24;4.43;;;2.45;;
10335;SDS011;5213;53.548;9.930;2023-10-09T04:36:54;2.42;;;2.22;;
10335;SDS011;5213;53.548;9.930;2023-10-09T04:39:44;3.28;;;2.40;;
10335;SDS011;5213;53.548;9.930;2023-10-09T04:42:35;4.57;;;2.90;;
10335;SDS011;5213;53.548;9.930;2023-10-09T04:45:04;4.78;;;2.60;;
10335;SDS011;5213;53.548;9.930;2023-10-09T04:47:34;4.07;;;2.60;;
10335;SDS011;5213;53.548;9.930;2023-10-09T04:52:37;3.35;;;2.75;;
10335;SDS011;5213;53.548;9.930;2023-10-09T04:55:03;3.83;;;2.75;;
10335;SDS011;5213;53.548;9.930;2023-10-09T04:57:42;3.25;;;2.72;;
10335;SDS011;5213;53.548;9.930;2023-10-09T05:00:09;4.18;;;2.50;;
10335;SDS011;5213;53.548;9.930;2023-10-09T05:02:51;5.40;;;2.67;;
10335;SDS011;5213;53.548;9.930;2023-10-09T05:05:36;3.28;;;2.25;;
10335;SDS011;5213;53.548;9.930;2023-10-09T05:08:11;7.30;;;3.25;;
10335;SDS011;5213;53.548;9.930;2023-10-09T05:18:50;6.43;;;2.72;;
10335;SDS011;5213;53.548;9.930;2023-10-09T05:21:38;3.22;;;2.60;;
10335;SDS011;5213;53.548;9.930;2023-10-09T05:24:07;2.40;;;2.20;;
10335;SDS011;5213;53.548;9.930;2023-10-09T05:26:49;3.20;;;2.50;;
10335;SDS011;5213;53.548;9.930;2023-10-09T05:29:24;4.65;;;2.58;;
10335;SDS011;5213;53.548;9.930;2023-10-09T05:31:53;2.40;;;2.20;;
10335;SDS011;5213;53.548;9.930;2023-10-09T05:34:25;3.38;;;2.60;;
10335;SDS011;5213;53.548;9.930;2023-10-09T05:37:20;3.67;;;2.38;;
10335;SDS011;5213;53.548;9.930;2023-10-09T05:39:58;5.10;;;2.63;;
10335;SDS011;5213;53.548;9.930;2023-10-09T05:42:48;4.00;;;2.63;;
10335;SDS011;5213;53.548;9.930;2023-10-09T05:45:24;6.63;;;2.60;;
10335;SDS011;5213;53.548;9.930;2023-10-09T05:48:09;4.13;;;2.60;;
10335;SDS011;5213;53.548;9.930;2023-10-09T05:50:37;2.72;;;2.50;;
10335;SDS011;5213;53.548;9.930;2023-10-09T05:53:22;5.65;;;2.72;;
10335;SDS011;5213;53.548;9.930;2023-10-09T05:56:20;4.00;;;2.53;;
10335;SDS011;5213;53.548;9.930;2023-10-09T05:58:57;3.22;;;2.58;;
10335;SDS011;5213;53.548;9.930;2023-10-09T06:01:42;3.30;;;2.63;;
10335;SDS011;5213;53.548;9.930;2023-10-09T06:04:26;3.80;;;2.75;;
10335;SDS011;5213;53.548;9.930;2023-10-09T06:07:10;3.47;;;2.70;;
10335;SDS011;5213;53.548;9.930;2023-10-09T06:09:39;3.50;;;2.83;;
10335;SDS011;5213;53.548;9.930;2023-10-09T06:12:14;5.43;;;3.40;;
10335;SDS011;5213;53.548;9.930;2023-10-09T06:15:00;5.28;;;3.20;;
10335;SDS011;5213;53.548;9.930;2023-10-09T06:17:49;4.53;;;3.75;;
10335;SDS011;5213;53.548;9.930;2023-10-09T06:20:17;4.80;;;3.83;;
10335;SDS011;5213;53.548;9.930;2023-10-09T06:23:01;4.35;;;3.40;;
10335;SDS011;5213;53.548;9.930;2023-10-09T06:25:41;5.60;;;3.85;;
10335;SDS011;5213;53.548;9.930;2023-10-09T06:28:16;5.05;;;3.78;;
10335;SDS011;5213;53.548;9.930;2023-10-09T06:30:44;5.35;;;3.90;;
10335;SDS011;5213;53.548;9.930;2023-10-09T06:33:12;4.85;;;3.80;;
10335;SDS011;5213;53.548;9.930;2023-10-09T06:35:44;4.97;;;4.03;;
10335;SDS011;5213;53.548;9.930;2023-10-09T06:38:18;5.38;;;3.70;;
10335;SDS011;5213;53.548;9.930;2023-10-09T06:40:49;5.65;;;3.63;;
10335;SDS011;5213;53.548;9.930;2023-10-09T06:43:34;5.85;;;3.88;;
10335;SDS011;5213;53.548;9.930;2023-10-09T06:46:14;4.47;;;3.63;;
10335;SDS011;5213;53.548;9.930;2023-10-09T06:48:49;6.47;;;4.18;;
10335;SDS011;5213;53.548;9.930;2023-10-09T06:51:21;4.28;;;3.60;;
10335;SDS011;5213;53.548;9.930;2023-10-09T06:53:53;5.30;;;3.78;;
10335;SDS011;5213;53.548;9.930;2023-10-09T06:56:22;4.88;;;3.33;;
10335;SDS011;5213;53.548;9.930;2023-10-09T06:58:57;4.22;;;3.22;;
10335;SDS011;5213;53.548;9.930;2023-10-09T07:01:24;5.38;;;3.53;;
10335;SDS011;5213;53.548;9.930;2023-10-09T07:03:56;3.80;;;3.40;;
10335;SDS011;5213;53.548;9.930;2023-10-09T07:06:47;3.92;;;3.33;;
10335;SDS011;5213;53.548;9.930;2023-10-09T07:09:17;3.80;;;3.20;;
10335;SDS011;5213;53.548;9.930;2023-10-09T07:11:47;3.50;;;3.20;;
10335;SDS011;5213;53.548;9.930;2023-10-09T07:14:17;4.20;;;3.60;;
10335;SDS011;5213;53.548;9.930;2023-10-09T07:19:46;4.10;;;3.67;;
10335;SDS011;5213;53.548;9.930;2023-10-09T07:22:12;3.88;;;3.55;;
10335;SDS011;5213;53.548;9.930;2023-10-09T07:24:53;3.35;;;3.05;;
10335;SDS011;5213;53.548;9.930;2023-10-09T07:27:22;4.85;;;3.85;;
10335;SDS011;5213;53.548;9.930;2023-10-09T07:30:07;3.70;;;3.40;;
10335;SDS011;5213;53.548;9.930;2023-10-09T07:32:59;3.78;;;3.38;;
10335;SDS011;5213;53.548;9.930;2023-10-09T07:35:49;4.28;;;3.03;;
10335;SDS011;5213;53.548;9.930;2023-10-09T07:38:18;3.38;;;3.08;;
10335;SDS011;5213;53.548;9.930;2023-10-09T07:40:48;3.72;;;2.95;;
10335;SDS011;5213;53.548;9.930;2023-10-09T07:43:32;3.42;;;3.13;;
10335;SDS011;5213;53.548;9.930;2023-10-09T07:46:11;3.70;;;3.22;;
10335;SDS011;5213;53.548;9.930;2023-10-09T07:48:57;3.13;;;2.92;;
10335;SDS011;5213;53.548;9.930;2023-10-09T07:51:25;3.10;;;2.90;;
10335;SDS011;5213;53.548;9.930;2023-10-09T07:53:58;3.53;;;3.10;;
10335;SDS011;5213;53.548;9.930;2023-10-09T07:56:36;3.22;;;2.92;;
10335;SDS011;5213;53.548;9.930;2023-10-09T07:59:18;3.13;;;2.92;;
10335;SDS011;5213;53.548;9.930;2023-10-09T08:01:45;4.38;;;3.15;;
10335;SDS011;5213;53.548;9.930;2023-10-09T08:04:20;2.90;;;2.70;;
10335;SDS011;5213;53.548;9.930;2023-10-09T08:07:09;3.03;;;2.83;;
10335;SDS011;5213;53.548;9.930;2023-10-09T08:09:44;3.20;;;3.00;;
10335;SDS011;5213;53.548;9.930;2023-10-09T08:12:13;3.90;;;3.45;;
10335;SDS011;5213;53.548;9.930;2023-10-09T08:14:40;3.80;;;3.40;;
10335;SDS011;5213;53.548;9.930;2023-10-09T08:17:08;5.18;;;3.28;;
10335;SDS011;5213;53.548;9.930;2023-10-09T08:19:39;4.10;;;3.70;;
10335;SDS011;5213;53.548;9.930;2023-10-09T08:22:29;3.70;;;3.40;;
10335;SDS011;5213;53.548;9.930;2023-10-09T08:24:55;3.75;;;3.42;;
10335;SDS011;5213;53.548;9.930;2023-10-09T08:27:22;4.43;;;4.03;;
10335;SDS011;5213;53.548;9.930;2023-10-09T08:30:04;4.03;;;3.63;;
10335;SDS011;5213;53.548;9.930;2023-10-09T08:32:53;6.60;;;4.28;;
10335;SDS011;5213;53.548;9.930;2023-10-09T08:35:29;7.40;;;4.47;;
10335;SDS011;5213;53.548;9.930;2023-10-09T08:37:55;4.90;;;4.18;;
10335;SDS011;5213;53.548;9.930;2023-10-09T08:40:34;4.50;;;3.95;;
10335;SDS011;5213;53.548;9.930;2023-10-09T08:43:21;4.95;;;4.32;;
10335;SDS011;5213;53.548;9.930;2023-10-09T08:45:52;5.32;;;3.90;;
10335;SDS011;5213;53.548;9.930;2023-10-09T08:48:19;4.45;;;4.05;;
10335;SDS011;5213;53.548;9.930;2023-10-09T08:50:51;3.80;;;3.40;;
10335;SDS011;5213;53.548;9.930;2023-10-09T08:53:20;4.90;;;3.47;;
10335;SDS011;5213;53.548;9.930;2023-10-09T08:55:47;4.03;;;3.25;;
10335;SDS011;5213;53.548;9.930;2023-10-09T08:58:15;4.85;;;4.45;;
10335;SDS011;5213;53.548;9.930;2023-10-09T09:01:02;4.22;;;3.65;;
10335;SDS011;5213;53.548;9.930;2023-10-09T09:03:37;3.72;;;3.40;;
10335;SDS011;5213;53.548;9.930;2023-10-09T09:06:04;3.55;;;3.25;;
10335;SDS011;5213;53.548;9.930;2023-10-09T09:08:31;3.67;;;3.38;;
10335;SDS011;5213;53.548;9.930;2023-10-09T09:13:46;4.20;;;3.80;;
10335;SDS011;5213;53.548;9.930;2023-10-09T09:16:22;3.88;;;3.58;;
10335;SDS011;5213;53.548;9.930;2023-10-09T09:19:13;4.18;;;3.78;;
10335;SDS011;5213;53.548;9.930;2023-10-09T09:21:56;4.28;;;3.97;;
10335;SDS011;5213;53.548;9.930;2023-10-09T09:24:24;3.88;;;3.58;;
10335;SDS011;5213;53.548;9.930;2023-10-09T09:26:50;4.68;;;4.20;;
10335;SDS011;5213;53.548;9.930;2023-10-09T09:32:04;3.60;;;3.30;;
10335;SDS011;5213;53.548;9.930;2023-10-09T09:37:23;3.50;;;3.20;;
10335;SDS011;5213;53.548;9.930;2023-10-09T09:39:54;4.05;;;3.05;;
10335;SDS011;5213;53.548;9.930;2023-10-09T09:42:42;3.60;;;3.30;;
10335;SDS011;5213;53.548;9.930;2023-10-09T09:45:10;3.50;;;3.20;;
10335;SDS011;5213;53.548;9.930;2023-10-09T09:47:36;3.25;;;3.00;;
10335;SDS011;5213;53.548;9.930;2023-10-09T09:50:04;3.65;;;3.35;;
10335;SDS011;5213;53.548;9.930;2023-10-09T09:52:38;2.95;;;2.75;;
10335;SDS011;5213;53.548;9.930;2023-10-09T09:55:06;3.05;;;2.85;;
10335;SDS011;5213;53.548;9.930;2023-10-09T09:57:41;3.53;;;3.22;;
10335;SDS011;5213;53.548;9.930;2023-10-09T10:00:10;3.58;;;3.28;;
10335;SDS011;5213;53.548;9.930;2023-10-09T10:02:54;3.08;;;2.88;;
10335;SDS011;5213;53.548;9.930;2023-10-09T10:05:23;3.05;;;2.85;;
10335;SDS011;5213;53.548;9.930;2023-10-09T10:07:55;2.80;;;2.60;;
10335;SDS011;5213;53.548;9.930;2023-10-09T10:10:35;2.83;;;2.63;;
10335;SDS011;5213;53.548;9.930;2023-10-09T10:13:54;2.70;;;2.50;;
10335;SDS011;5213;53.548;9.930;2023-10-09T10:16:14;3.78;;;3.03;;
10335;SDS011;5213;53.548;9.930;2023-10-09T10:18:55;2.20;;;2.10;;
10335;SDS011;5213;53.548;9.930;2023-10-09T10:21:26;2.65;;;2.30;;
10335;SDS011;5213;53.548;9.930;2023-10-09T10:24:05;2.40;;;2.30;;
10335;SDS011;5213;53.548;9.930;2023-10-09T10:30:34;2.85;;;2.65;;
10335;SDS011;5213;53.548;9.930;2023-10-09T10:35:17;3.13;;;2.78;;
10335;SDS011;5213;53.548;9.930;2023-10-09T10:37:45;2.40;;;2.20;;
10335;SDS011;5213;53.548;9.930;2023-10-09T10:40:26;2.90;;;2.70;;
10335;SDS011;5213;53.548;9.930;2023-10-09T10:43:14;2.75;;;2.55;;
10335;SDS011;5213;53.548;9.930;2023-10-09T10:46:06;3.13;;;2.83;;
10335;SDS011;5213;53.548;9.930;2023-10-09T10:48:51;4.00;;;3.17;;
10335;SDS011;5213;53.548;9.930;2023-10-09T10:51:36;3.55;;;3.25;;
10335;SDS011;5213;53.548;9.930;2023-10-09T10:54:08;3.17;;;2.88;;
10335;SDS011;5213;53.548;9.930;2023-10-09T10:56:53;3.28;;;2.72;;
10335;SDS011;5213;53.548;9.930;2023-10-09T10:59:22;2.70;;;2.50;;
10335;SDS011;5213;53.548;9.930;2023-10-09T11:01:50;2.80;;;2.60;;
10335;SDS011;5213;53.548;9.930;2023-10-09T11:04:24;2.60;;;2.30;;
10335;SDS011;5213;53.548;9.930;2023-10-09T11:06:57;1.73;;;1.70;;
10335;SDS011;5213;53.548;9.930;2023-10-09T11:09:48;2.13;;;2.03;;
10335;SDS011;5213;53.548;9.930;2023-10-09T11:12:31;3.17;;;2.10;;
10335;SDS011;5213;53.548;9.930;2023-10-09T11:15:15;2.00;;;1.90;;
10335;SDS011;5213;53.548;9.930;2023-10-09T11:20:35;1.90;;;1.80;;
10335;SDS011;5213;53.548;9.930;2023-10-09T11:23:03;2.30;;;2.10;;
10335;SDS011;5213;53.548;9.930;2023-10-09T11:25:35;2.13;;;2.03;;
10335;SDS011;5213;53.548;9.930;2023-10-09T11:28:03;2.20;;;2.00;;
10335;SDS011;5213;53.548;9.930;2023-10-09T11:30:53;2.78;;;1.80;;
10335;SDS011;5213;53.548;9.930;2023-10-09T11:33:20;2.20;;;2.10;;
10335;SDS011;5213;53.548;9.930;2023-10-09T11:35:56;2.53;;;2.33;;
10335;SDS011;5213;53.548;9.930;2023-10-09T11:38:23;2.50;;;2.30;;
10335;SDS011;5213;53.548;9.930;2023-10-09T11:40:49;2.85;;;2.65;;
10335;SDS011;5213;53.548;9.930;2023-10-09T11:43:15;2.22;;;2.10;;
10335;SDS011;5213;53.548;9.930;2023-10-09T11:45:40;2.45;;;2.30;;
10335;SDS011;5213;53.548;9.930;2023-10-09T11:48:19;2.58;;;2.40;;
10335;SDS011;5213;53.548;9.930;2023-10-09T11:51:15;2.47;;;2.00;;
10335;SDS011;5213;53.548;9.930;2023-10-09T11:53:46;2.28;;;2.17;;
10335;SDS011;5213;53.548;9.930;2023-10-09T11:56:14;2.40;;;2.30;;
10335;SDS011;5213;53.548;9.930;2023-10-09T11:58:46;2.58;;;2.38;;
10335;SDS011;5213;53.548;9.930;2023-10-09T12:01:15;2.70;;;2.28;;
10335;SDS011;5213;53.548;9.930;2023-10-09T12:03:47;2.60;;;2.50;;
10335;SDS011;5213;53.548;9.930;2023-10-09T12:06:19;2.63;;;2.42;;
10335;SDS011;5213;53.548;9.930;2023-10-09T12:08:49;2.55;;;2.30;;
10335;SDS011;5213;53.548;9.930;2023-10-09T12:11:15;2.70;;;2.60;;
10335;SDS011;5213;53.548;9.930;2023-10-09T12:13:50;2.85;;;2.65;;
10335;SDS011;5213;53.548;9.930;2023-10-09T12:16:21;2.38;;;2.25;;
10335;SDS011;5213;53.548;9.930;2023-10-09T12:18:52;2.70;;;2.50;;
10335;SDS011;5213;53.548;9.930;2023-10-09T12:21:22;2.50;;;2.40;;
10335;SDS011;5213;53.548;9.930;2023-10-09T12:23:48;2.70;;;2.50;;
10335;SDS011;5213;53.548;9.930;2023-10-09T12:26:14;2.63;;;2.47;;
10335;SDS011;5213;53.548;9.930;2023-10-09T12:28:43;3.03;;;2.83;;
10335;SDS011;5213;53.548;9.930;2023-10-09T12:31:11;2.95;;;2.75;;
10335;SDS011;5213;53.548;9.930;2023-10-09T12:33:40;2.97;;;2.67;;
10335;SDS011;5213;53.548;9.930;2023-10-09T12:36:06;3.22;;;3.03;;
10335;SDS011;5213;53.548;9.930;2023-10-09T12:38:42;3.70;;;3.40;;
10335;SDS011;5213;53.548;9.930;2023-10-09T12:41:11;3.40;;;3.20;;
10335;SDS011;5213;53.548;9.930;2023-10-09T12:43:53;3.22;;;3.03;;
10335;SDS011;5213;53.548;9.930;2023-10-09T12:46:19;3.75;;;3.15;;
10335;SDS011;5213;53.548;9.930;2023-10-09T12:48:48;3.85;;;3.47;;
10335;SDS011;5213;53.548;9.930;2023-10-09T12:51:14;4.25;;;3.42;;
10335;SDS011;5213;53.548;9.930;2023-10-09T12:53:44;3.55;;;3.35;;
10335;SDS011;5213;53.548;9.930;2023-10-09T12:56:11;4.00;;;3.60;;
10335;SDS011;5213;53.548;9.930;2023-10-09T12:58:37;3.25;;;3.05;;
10335;SDS011;5213;53.548;9.930;2023-10-09T13:01:03;3.78;;;3.40;;
10335;SDS011;5213;53.548;9.930;2023-10-09T13:03:36;4.30;;;3.80;;
10335;SDS011;5213;53.548;9.930;2023-10-09T13:06:05;4.28;;;3.88;;
10335;SDS011;5213;53.548;9.930;2023-10-09T13:08:35;4.32;;;4.00;;
10335;SDS011;5213;53.548;9.930;2023-10-09T13:11:05;4.30;;;3.85;;
10335;SDS011;5213;53.548;9.930;2023-10-09T13:13:35;4.32;;;4.03;;
10335;SDS011;5213;53.548;9.930;2023-10-09T13:16:15;4.55;;;4.18;;
10335;SDS011;5213;53.548;9.930;2023-10-09T13:18:51;4.20;;;3.90;;
10335;SDS011;5213;53.548;9.930;2023-10-09T13:21:19;4.10;;;3.80;;
10335;SDS011;5213;53.548;9.930;2023-10-09T13:23:46;3.47;;;3.22;;
10335;SDS011;5213;53.548;9.930;2023-10-09T13:26:14;4.20;;;3.90;;
10335;SDS011;5213;53.548;9.930;2023-10-09T13:28:44;4.05;;;3.40;;
10335;SDS011;5213;53.548;9.930;2023-10-09T13:31:11;3.38;;;3.08;;
10335;SDS011;5213;53.548;9.930;2023-10-09T13:33:39;3.55;;;3.33;;
10335;SDS011;5213;53.548;9.930;2023-10-09T13:36:07;3.03;;;2.83;;
10335;SDS011;5213;53.548;9.930;2023-10-09T13:38:41;3.20;;;3.00;;
10335;SDS011;5213;53.548;9.930;2023-10-09T13:41:08;3.10;;;2.90;;
10335;SDS011;5213;53.548;9.930;2023-10-09T13:43:40;4.22;;;3.22;;
10335;SDS011;5213;53.548;9.930;2023-10-09T13:46:07;3.50;;;3.30;;
10335;SDS011;5213;53.548;9.930;2023-10-09T13:48:34;4.25;;;3.25;;
10335;SDS011;5213;53.548;9.930;2023-10-09T13:51:05;5.55;;;3.35;;
10335;SDS011;5213;53.548;9.930;2023-10-09T13:53:39;4.55;;;3.80;;
10335;SDS011;5213;53.548;9.930;2023-10-09T13:58:49;3.72;;;3.42;;
10335;SDS011;5213;53.548;9.930;2023-10-09T14:01:16;4.13;;;3.83;;
10335;SDS011;5213;53.548;9.930;2023-10-09T14:03:58;3.33;;;3.13;;
10335;SDS011;5213;53.548;9.930;2023-10-09T14:06:25;3.80;;;3.50;;
10335;SDS011;5213;53.548;9.930;2023-10-09T14:08:57;4.18;;;3.88;;
10335;SDS011;5213;53.548;9.930;2023-10-09T14:11:23;4.70;;;4.30;;
10335;SDS011;5213;53.548;9.930;2023-10-09T14:13:50;4.88;;;4.35;;
10335;SDS011;5213;53.548;9.930;2023-10-09T14:16:16;5.40;;;4.55;;
10335;SDS011;5213;53.548;9.930;2023-10-09T14:18:58;5.00;;;4.70;;
10335;SDS011;5213;53.548;9.930;2023-10-09T14:21:26;5.07;;;4.65;;
10335;SDS011;5213;53.548;9.930;2023-10-09T14:23:54;5.30;;;4.90;;
10335;SDS011;5213;53.548;9.930;2023-10-09T14:26:27;5.30;;;4.90;;
10335;SDS011;5213;53.548;9.930;2023-10-09T14:28:54;4.90;;;4.50;;
10335;SDS011;5213;53.548;9.930;2023-10-09T14:31:25;5.30;;;4.90;;
10335;SDS011;5213;53.548;9.930;2023-10-09T14:33:55;5.65;;;5.15;;
10335;SDS011;5213;53.548;9.930;2023-10-09T14:36:21;5.20;;;4.70;;
10335;SDS011;5213;53.548;9.930;2023-10-09T14:38:51;5.00;;;4.53;;
10335;SDS011;5213;53.548;9.930;2023-10-09T14:41:20;4.68;;;4.28;;
10335;SDS011;5213;53.548;9.930;2023-10-09T14:43:50;4.75;;;4.28;;
10335;SDS011;5213;53.548;9.930;2023-10-09T14:46:17;5.95;;;5.35;;
10335;SDS011;5213;53.548;9.930;2023-10-09T14:48:50;5.13;;;4.72;;
10335;SDS011;5213;53.548;9.930;2023-10-09T14:51:19;5.65;;;5.15;;
10335;SDS011;5213;53.548;9.930;2023-10-09T14:53:58;5.32;;;4.82;;
10335;SDS011;5213;53.548;9.930;2023-10-09T14:56:26;9.00;;;6.90;;
10335;SDS011;5213;53.548;9.930;2023-10-09T14:58:58;7.28;;;6.57;;
10335;SDS011;5213;53.548;9.930;2023-10-09T15:01:28;6.38;;;5.78;;
10335;SDS011;5213;53.548;9.930;2023-10-09T15:03:56;6.25;;;5.65;;
10335;SDS011;5213;53.548;9.930;2023-10-09T15:06:26;6.60;;;6.00;;
10335;SDS011;5213;53.548;9.930;2023-10-09T15:08:53;7.13;;;6.03;;
10335;SDS011;5213;53.548;9.930;2023-10-09T15:11:24;6.53;;;5.63;;
10335;SDS011;5213;53.548;9.930;2023-10-09T15:13:54;5.70;;;5.20;;
10335;SDS011;5213;53.548;9.930;2023-10-09T15:16:21;5.63;;;5.07;;
10335;SDS011;5213;53.548;9.930;2023-10-09T15:18:51;7.75;;;6.05;;
10335;SDS011;5213;53.548;9.930;2023-10-09T15:21:18;6.18;;;5.68;;
10335;SDS011;5213;53.548;9.930;2023-10-09T15:23:48;6.10;;;5.60;;
10335;SDS011;5213;53.548;9.930;2023-10-09T15:26:19;6.60;;;5.90;;
10335;SDS011;5213;53.548;9.930;2023-10-09T15:28:45;6.63;;;6.03;;
10335;SDS011;5213;53.548;9.930;2023-10-09T15:31:11;6.65;;;6.05;;
10335;SDS011;5213;53.548;9.930;2023-10-09T15:33:39;6.95;;;6.20;;
10335;SDS011;5213;53.548;9.930;2023-10-09T15:36:12;6.80;;;5.70;;
10335;SDS011;5213;53.548;9.930;2023-10-09T15:38:39;6.05;;;5.45;;
10335;SDS011;5213;53.548;9.930;2023-10-09T15:41:05;5.78;;;4.95;;
10335;SDS011;5213;53.548;9.930;2023-10-09T15:43:31;4.47;;;4.07;;
10335;SDS011;5213;53.548;9.930;2023-10-09T15:45:58;5.28;;;3.83;;
10335;SDS011;5213;53.548;9.930;2023-10-09T15:48:24;4.40;;;3.63;;
10335;SDS011;5213;53.548;9.930;2023-10-09T15:50:50;3.72;;;3.20;;
10335;SDS011;5213;53.548;9.930;2023-10-09T15:53:16;3.90;;;3.00;;
10335;SDS011;5213;53.548;9.930;2023-10-09T15:55:43;4.93;;;3.30;;
10335;SDS011;5213;53.548;9.930;2023-10-09T15:58:10;4.80;;;2.47;;
10335;SDS011;5213;53.548;9.930;2023-10-09T16:00:36;2.70;;;2.35;;
10335;SDS011;5213;53.548;9.930;2023-10-09T16:03:03;5.10;;;2.55;;
10335;SDS011;5213;53.548;9.930;2023-10-09T16:05:29;5.40;;;2.47;;
10335;SDS011;5213;53.548;9.930;2023-10-09T16:07:56;3.75;;;2.20;;
10335;SDS011;5213;53.548;9.930;2023-10-09T16:10:23;2.88;;;1.85;;
10335;SDS011;5213;53.548;9.930;2023-10-09T16:12:49;3.33;;;1.80;;
10335;SDS011;5213;53.548;9.930;2023-10-09T16:15:18;3.85;;;1.90;;